sensor_id;sensor_type;location;lat;lon;timestamp;P1;durP1;ratioP1;P2;durP2;ratioP2
75626;SDS011;64211;49.404;11.034;2022-12-18T00:01:03;24.63;;;12.55;;
75626;SDS011;64211;49.404;11.034;2022-12-18T00:03:35;36.08;;;15.82;;
75626;SDS011;64211;49.404;11.034;2022-12-18T00:06:02;40.30;;;14.90;;
75626;SDS011;64211;49.404;11.034;2022-12-18T00:08:29;30.75;;;13.73;;
75626;SDS011;64211;49.404;11.034;2022-12-18T00:10:55;36.65;;;15.38;;
75626;SDS011;64211;49.404;11.034;2022-12-18T00:13:32;36.22;;;14.70;;
75626;SDS011;64211;49.404;11.034;2022-12-18T00:16:02;37.60;;;14.13;;
75626;SDS011;64211;49.404;11.034;2022-12-18T00:18:30;34.03;;;13.18;;
75626;SDS011;64211;49.404;11.034;2022-12-18T00:21:01;24.10;;;13.18;;
75626;SDS011;64211;49.404;11.034;2022-12-18T00:23:29;37.35;;;16.88;;
75626;SDS011;64211;49.404;11.034;2022-12-18T00:26:01;38.25;;;14.32;;
75626;SDS011;64211;49.404;11.034;2022-12-18T00:28:29;38.05;;;13.95;;
75626;SDS011;64211;49.404;11.034;2022-12-18T00:31:11;36.38;;;15.00;;
75626;SDS011;64211;49.404;11.034;2022-12-18T00:33:39;48.92;;;18.20;;
75626;SDS011;64211;49.404;11.034;2022-12-18T00:36:07;34.38;;;12.15;;
75626;SDS011;64211;49.404;11.034;2022-12-18T00:38:45;28.48;;;12.05;;
75626;SDS011;64211;49.404;11.034;2022-12-18T00:41:13;27.90;;;11.95;;
75626;SDS011;64211;49.404;11.034;2022-12-18T00:44:01;24.33;;;12.35;;
75626;SDS011;64211;49.404;11.034;2022-12-18T00:46:28;27.38;;;12.10;;
75626;SDS011;64211;49.404;11.034;2022-12-18T00:48:54;39.45;;;13.93;;
75626;SDS011;64211;49.404;11.034;2022-12-18T00:51:21;29.58;;;14.68;;
75626;SDS011;64211;49.404;11.034;2022-12-18T00:53:47;26.42;;;12.70;;
75626;SDS011;64211;49.404;11.034;2022-12-18T00:56:13;32.00;;;11.98;;
75626;SDS011;64211;49.404;11.034;2022-12-18T00:58:40;26.80;;;11.57;;
75626;SDS011;64211;49.404;11.034;2022-12-18T01:01:06;28.73;;;13.23;;
75626;SDS011;64211;49.404;11.034;2022-12-18T01:03:33;37.13;;;12.23;;
75626;SDS011;64211;49.404;11.034;2022-12-18T01:06:05;32.60;;;10.85;;
75626;SDS011;64211;49.404;11.034;2022-12-18T01:08:32;28.42;;;9.75;;
75626;SDS011;64211;49.404;11.034;2022-12-18T01:10:59;31.08;;;10.57;;
75626;SDS011;64211;49.404;11.034;2022-12-18T01:13:26;30.55;;;12.57;;
75626;SDS011;64211;49.404;11.034;2022-12-18T01:15:53;23.00;;;11.88;;
75626;SDS011;64211;49.404;11.034;2022-12-18T01:18:20;37.63;;;14.27;;
75626;SDS011;64211;49.404;11.034;2022-12-18T01:20:46;36.20;;;12.70;;
75626;SDS011;64211;49.404;11.034;2022-12-18T01:23:12;34.45;;;12.60;;
75626;SDS011;64211;49.404;11.034;2022-12-18T01:25:39;25.60;;;11.70;;
75626;SDS011;64211;49.404;11.034;2022-12-18T01:28:05;31.30;;;12.77;;
75626;SDS011;64211;49.404;11.034;2022-12-18T01:30:32;32.85;;;12.90;;
75626;SDS011;64211;49.404;11.034;2022-12-18T01:32:58;46.92;;;15.93;;
75626;SDS011;64211;49.404;11.034;2022-12-18T01:35:25;37.10;;;11.73;;
75626;SDS011;64211;49.404;11.034;2022-12-18T01:37:54;29.55;;;11.23;;
75626;SDS011;64211;49.404;11.034;2022-12-18T01:40:21;23.48;;;10.27;;
75626;SDS011;64211;49.404;11.034;2022-12-18T01:42:56;22.95;;;10.30;;
75626;SDS011;64211;49.404;11.034;2022-12-18T01:45:24;20.88;;;10.00;;
75626;SDS011;64211;49.404;11.034;2022-12-18T01:47:56;44.05;;;14.80;;
75626;SDS011;64211;49.404;11.034;2022-12-18T01:50:41;32.47;;;10.63;;
75626;SDS011;64211;49.404;11.034;2022-12-18T01:55:50;15.15;;;7.03;;
75626;SDS011;64211;49.404;11.034;2022-12-18T01:58:20;22.55;;;8.75;;
75626;SDS011;64211;49.404;11.034;2022-12-18T02:00:54;24.83;;;9.25;;
75626;SDS011;64211;49.404;11.034;2022-12-18T02:03:21;26.58;;;9.98;;
75626;SDS011;64211;49.404;11.034;2022-12-18T02:08:30;26.02;;;9.52;;
75626;SDS011;64211;49.404;11.034;2022-12-18T02:11:05;27.17;;;9.40;;
75626;SDS011;64211;49.404;11.034;2022-12-18T02:13:54;25.50;;;9.05;;
75626;SDS011;64211;49.404;11.034;2022-12-18T02:16:34;23.33;;;10.23;;
75626;SDS011;64211;49.404;11.034;2022-12-18T02:19:20;20.73;;;8.45;;
75626;SDS011;64211;49.404;11.034;2022-12-18T02:25:25;29.15;;;10.45;;
75626;SDS011;64211;49.404;11.034;2022-12-18T02:28:18;23.52;;;9.35;;
75626;SDS011;64211;49.404;11.034;2022-12-18T02:30:49;23.48;;;8.55;;
75626;SDS011;64211;49.404;11.034;2022-12-18T02:33:19;24.63;;;8.02;;
75626;SDS011;64211;49.404;11.034;2022-12-18T02:35:47;23.50;;;8.82;;
75626;SDS011;64211;49.404;11.034;2022-12-18T02:38:15;22.25;;;8.50;;
75626;SDS011;64211;49.404;11.034;2022-12-18T02:40:42;26.92;;;8.48;;
75626;SDS011;64211;49.404;11.034;2022-12-18T02:43:11;25.13;;;8.63;;
75626;SDS011;64211;49.404;11.034;2022-12-18T02:45:51;22.13;;;8.48;;
75626;SDS011;64211;49.404;11.034;2022-12-18T02:48:24;23.58;;;9.13;;
75626;SDS011;64211;49.404;11.034;2022-12-18T02:53:51;22.73;;;8.05;;
75626;SDS011;64211;49.404;11.034;2022-12-18T02:56:28;23.73;;;8.55;;
75626;SDS011;64211;49.404;11.034;2022-12-18T02:59:13;33.72;;;11.20;;
75626;SDS011;64211;49.404;11.034;2022-12-18T03:04:41;25.20;;;7.95;;
75626;SDS011;64211;49.404;11.034;2022-12-18T03:07:18;24.05;;;9.70;;
75626;SDS011;64211;49.404;11.034;2022-12-18T03:09:50;27.45;;;9.45;;
75626;SDS011;64211;49.404;11.034;2022-12-18T03:12:52;27.02;;;8.77;;
75626;SDS011;64211;49.404;11.034;2022-12-18T03:15:30;18.35;;;7.55;;
75626;SDS011;64211;49.404;11.034;2022-12-18T03:18:05;20.77;;;8.07;;
75626;SDS011;64211;49.404;11.034;2022-12-18T03:20:37;23.60;;;7.50;;
75626;SDS011;64211;49.404;11.034;2022-12-18T03:23:09;24.52;;;8.98;;
75626;SDS011;64211;49.404;11.034;2022-12-18T03:25:40;24.10;;;8.88;;
75626;SDS011;64211;49.404;11.034;2022-12-18T03:28:12;21.50;;;8.80;;
75626;SDS011;64211;49.404;11.034;2022-12-18T03:30:41;22.42;;;8.18;;
75626;SDS011;64211;49.404;11.034;2022-12-18T03:33:12;27.95;;;10.20;;
75626;SDS011;64211;49.404;11.034;2022-12-18T03:35:45;22.65;;;8.10;;
75626;SDS011;64211;49.404;11.034;2022-12-18T03:38:12;22.23;;;7.20;;
75626;SDS011;64211;49.404;11.034;2022-12-18T03:43:10;36.65;;;10.05;;
75626;SDS011;64211;49.404;11.034;2022-12-18T03:45:50;23.05;;;9.30;;
75626;SDS011;64211;49.404;11.034;2022-12-18T03:51:02;28.80;;;10.25;;
75626;SDS011;64211;49.404;11.034;2022-12-18T03:56:18;27.05;;;8.73;;
75626;SDS011;64211;49.404;11.034;2022-12-18T03:58:47;24.25;;;7.90;;
75626;SDS011;64211;49.404;11.034;2022-12-18T04:03:44;18.58;;;6.65;;
75626;SDS011;64211;49.404;11.034;2022-12-18T04:06:14;25.55;;;8.23;;
75626;SDS011;64211;49.404;11.034;2022-12-18T04:11:09;17.65;;;6.13;;
75626;SDS011;64211;49.404;11.034;2022-12-18T04:13:36;22.70;;;9.02;;
75626;SDS011;64211;49.404;11.034;2022-12-18T04:16:05;25.90;;;8.18;;
75626;SDS011;64211;49.404;11.034;2022-12-18T04:18:32;27.38;;;9.05;;
75626;SDS011;64211;49.404;11.034;2022-12-18T04:20:58;20.40;;;8.10;;
75626;SDS011;64211;49.404;11.034;2022-12-18T04:23:25;22.23;;;9.27;;
75626;SDS011;64211;49.404;11.034;2022-12-18T04:25:51;25.50;;;8.50;;
75626;SDS011;64211;49.404;11.034;2022-12-18T04:28:17;28.25;;;9.65;;
75626;SDS011;64211;49.404;11.034;2022-12-18T04:30:44;31.80;;;10.10;;
75626;SDS011;64211;49.404;11.034;2022-12-18T04:33:11;26.80;;;9.55;;
75626;SDS011;64211;49.404;11.034;2022-12-18T04:35:39;23.42;;;9.10;;
75626;SDS011;64211;49.404;11.034;2022-12-18T04:38:07;21.98;;;8.65;;
75626;SDS011;64211;49.404;11.034;2022-12-18T04:40:34;23.58;;;8.32;;
75626;SDS011;64211;49.404;11.034;2022-12-18T04:43:01;24.63;;;8.20;;
75626;SDS011;64211;49.404;11.034;2022-12-18T04:45:29;22.52;;;9.07;;
75626;SDS011;64211;49.404;11.034;2022-12-18T04:50:23;17.88;;;6.72;;
75626;SDS011;64211;49.404;11.034;2022-12-18T04:52:50;22.40;;;8.15;;
75626;SDS011;64211;49.404;11.034;2022-12-18T04:55:16;25.10;;;7.72;;
75626;SDS011;64211;49.404;11.034;2022-12-18T04:57:43;25.63;;;9.38;;
75626;SDS011;64211;49.404;11.034;2022-12-18T05:00:09;27.80;;;9.38;;
75626;SDS011;64211;49.404;11.034;2022-12-18T05:02:36;29.80;;;10.13;;
75626;SDS011;64211;49.404;11.034;2022-12-18T05:05:03;34.40;;;10.57;;
75626;SDS011;64211;49.404;11.034;2022-12-18T05:07:30;29.92;;;9.50;;
75626;SDS011;64211;49.404;11.034;2022-12-18T05:09:56;26.48;;;9.27;;
75626;SDS011;64211;49.404;11.034;2022-12-18T05:12:23;19.58;;;8.00;;
75626;SDS011;64211;49.404;11.034;2022-12-18T05:14:49;28.02;;;9.25;;
75626;SDS011;64211;49.404;11.034;2022-12-18T05:17:16;29.83;;;9.40;;
75626;SDS011;64211;49.404;11.034;2022-12-18T05:19:43;24.70;;;9.20;;
75626;SDS011;64211;49.404;11.034;2022-12-18T05:22:09;22.80;;;8.50;;
75626;SDS011;64211;49.404;11.034;2022-12-18T05:24:36;35.95;;;11.20;;
75626;SDS011;64211;49.404;11.034;2022-12-18T05:27:02;27.77;;;9.93;;
75626;SDS011;64211;49.404;11.034;2022-12-18T05:29:29;31.90;;;10.38;;
75626;SDS011;64211;49.404;11.034;2022-12-18T05:31:55;22.48;;;7.28;;
75626;SDS011;64211;49.404;11.034;2022-12-18T05:34:22;24.17;;;7.80;;
75626;SDS011;64211;49.404;11.034;2022-12-18T05:36:48;26.38;;;8.48;;
75626;SDS011;64211;49.404;11.034;2022-12-18T05:39:15;26.13;;;9.18;;
75626;SDS011;64211;49.404;11.034;2022-12-18T05:41:41;25.13;;;8.15;;
75626;SDS011;64211;49.404;11.034;2022-12-18T05:44:08;26.23;;;8.77;;
75626;SDS011;64211;49.404;11.034;2022-12-18T05:46:34;27.77;;;8.30;;
75626;SDS011;64211;49.404;11.034;2022-12-18T05:49:02;23.95;;;8.88;;
75626;SDS011;64211;49.404;11.034;2022-12-18T05:51:28;20.73;;;8.32;;
75626;SDS011;64211;49.404;11.034;2022-12-18T05:53:55;26.23;;;8.98;;
75626;SDS011;64211;49.404;11.034;2022-12-18T05:56:22;29.83;;;9.02;;
75626;SDS011;64211;49.404;11.034;2022-12-18T05:58:50;28.83;;;9.77;;
75626;SDS011;64211;49.404;11.034;2022-12-18T06:01:21;22.02;;;7.75;;
75626;SDS011;64211;49.404;11.034;2022-12-18T06:03:49;20.05;;;7.70;;
75626;SDS011;64211;49.404;11.034;2022-12-18T06:06:17;22.08;;;7.93;;
75626;SDS011;64211;49.404;11.034;2022-12-18T06:08:46;28.70;;;8.60;;
75626;SDS011;64211;49.404;11.034;2022-12-18T06:11:12;21.67;;;7.47;;
75626;SDS011;64211;49.404;11.034;2022-12-18T06:13:41;29.02;;;9.02;;
75626;SDS011;64211;49.404;11.034;2022-12-18T06:16:08;24.58;;;7.45;;
75626;SDS011;64211;49.404;11.034;2022-12-18T06:18:37;22.45;;;8.10;;
75626;SDS011;64211;49.404;11.034;2022-12-18T06:21:04;22.23;;;7.90;;
75626;SDS011;64211;49.404;11.034;2022-12-18T06:23:30;24.33;;;9.48;;
75626;SDS011;64211;49.404;11.034;2022-12-18T06:25:57;26.35;;;8.68;;
75626;SDS011;64211;49.404;11.034;2022-12-18T06:28:24;29.60;;;8.65;;
75626;SDS011;64211;49.404;11.034;2022-12-18T06:30:50;20.83;;;8.70;;
75626;SDS011;64211;49.404;11.034;2022-12-18T06:33:17;23.35;;;6.63;;
75626;SDS011;64211;49.404;11.034;2022-12-18T06:35:43;19.73;;;7.22;;
75626;SDS011;64211;49.404;11.034;2022-12-18T06:38:09;20.50;;;7.30;;
75626;SDS011;64211;49.404;11.034;2022-12-18T06:40:37;21.65;;;7.97;;
75626;SDS011;64211;49.404;11.034;2022-12-18T06:43:05;23.13;;;8.48;;
75626;SDS011;64211;49.404;11.034;2022-12-18T06:45:32;23.02;;;7.55;;
75626;SDS011;64211;49.404;11.034;2022-12-18T06:47:58;22.45;;;8.30;;
75626;SDS011;64211;49.404;11.034;2022-12-18T06:50:25;18.38;;;8.60;;
75626;SDS011;64211;49.404;11.034;2022-12-18T06:52:51;31.38;;;12.93;;
75626;SDS011;64211;49.404;11.034;2022-12-18T06:55:18;20.98;;;9.57;;
75626;SDS011;64211;49.404;11.034;2022-12-18T06:57:44;27.13;;;9.45;;
75626;SDS011;64211;49.404;11.034;2022-12-18T07:00:11;18.08;;;8.05;;
75626;SDS011;64211;49.404;11.034;2022-12-18T07:02:37;19.10;;;8.07;;
75626;SDS011;64211;49.404;11.034;2022-12-18T07:05:04;24.00;;;7.57;;
75626;SDS011;64211;49.404;11.034;2022-12-18T07:07:35;19.13;;;6.15;;
75626;SDS011;64211;49.404;11.034;2022-12-18T07:10:02;12.63;;;3.67;;
75626;SDS011;64211;49.404;11.034;2022-12-18T07:12:28;17.65;;;5.53;;
75626;SDS011;64211;49.404;11.034;2022-12-18T07:14:55;15.95;;;6.05;;
75626;SDS011;64211;49.404;11.034;2022-12-18T07:17:21;20.42;;;6.07;;
75626;SDS011;64211;49.404;11.034;2022-12-18T07:19:48;18.52;;;6.90;;
75626;SDS011;64211;49.404;11.034;2022-12-18T07:22:14;16.33;;;6.38;;
75626;SDS011;64211;49.404;11.034;2022-12-18T07:24:41;15.98;;;5.40;;
75626;SDS011;64211;49.404;11.034;2022-12-18T07:27:07;17.17;;;5.80;;
75626;SDS011;64211;49.404;11.034;2022-12-18T07:29:35;23.58;;;6.43;;
75626;SDS011;64211;49.404;11.034;2022-12-18T07:32:01;24.13;;;7.72;;
75626;SDS011;64211;49.404;11.034;2022-12-18T07:34:28;20.20;;;6.57;;
75626;SDS011;64211;49.404;11.034;2022-12-18T07:36:54;15.85;;;5.75;;
75626;SDS011;64211;49.404;11.034;2022-12-18T07:39:21;19.58;;;8.43;;
75626;SDS011;64211;49.404;11.034;2022-12-18T07:41:47;17.13;;;6.05;;
75626;SDS011;64211;49.404;11.034;2022-12-18T07:44:33;24.02;;;7.93;;
75626;SDS011;64211;49.404;11.034;2022-12-18T07:47:00;23.63;;;7.78;;
75626;SDS011;64211;49.404;11.034;2022-12-18T07:49:27;21.30;;;7.25;;
75626;SDS011;64211;49.404;11.034;2022-12-18T07:51:54;22.02;;;7.75;;
75626;SDS011;64211;49.404;11.034;2022-12-18T07:54:22;32.95;;;12.40;;
75626;SDS011;64211;49.404;11.034;2022-12-18T07:56:49;22.63;;;8.15;;
75626;SDS011;64211;49.404;11.034;2022-12-18T07:59:17;21.92;;;7.88;;
75626;SDS011;64211;49.404;11.034;2022-12-18T08:01:44;22.95;;;7.35;;
75626;SDS011;64211;49.404;11.034;2022-12-18T08:04:12;22.38;;;7.20;;
75626;SDS011;64211;49.404;11.034;2022-12-18T08:06:38;21.65;;;6.78;;
75626;SDS011;64211;49.404;11.034;2022-12-18T08:09:11;24.25;;;8.30;;
75626;SDS011;64211;49.404;11.034;2022-12-18T08:11:37;29.10;;;9.45;;
75626;SDS011;64211;49.404;11.034;2022-12-18T08:14:04;27.20;;;8.55;;
75626;SDS011;64211;49.404;11.034;2022-12-18T08:16:30;22.05;;;7.32;;
75626;SDS011;64211;49.404;11.034;2022-12-18T08:18:57;23.13;;;7.78;;
75626;SDS011;64211;49.404;11.034;2022-12-18T08:21:24;24.15;;;8.73;;
75626;SDS011;64211;49.404;11.034;2022-12-18T08:23:53;21.50;;;7.07;;
75626;SDS011;64211;49.404;11.034;2022-12-18T08:26:21;17.35;;;6.40;;
75626;SDS011;64211;49.404;11.034;2022-12-18T08:28:49;21.88;;;8.23;;
75626;SDS011;64211;49.404;11.034;2022-12-18T08:31:17;28.83;;;9.18;;
75626;SDS011;64211;49.404;11.034;2022-12-18T08:33:44;20.55;;;7.72;;
75626;SDS011;64211;49.404;11.034;2022-12-18T08:36:10;22.63;;;9.02;;
75626;SDS011;64211;49.404;11.034;2022-12-18T08:38:37;20.35;;;7.07;;
75626;SDS011;64211;49.404;11.034;2022-12-18T08:41:04;20.35;;;7.00;;
75626;SDS011;64211;49.404;11.034;2022-12-18T08:43:33;16.35;;;4.97;;
75626;SDS011;64211;49.404;11.034;2022-12-18T08:46:18;19.58;;;7.53;;
75626;SDS011;64211;49.404;11.034;2022-12-18T08:48:46;16.83;;;6.28;;
75626;SDS011;64211;49.404;11.034;2022-12-18T08:51:12;25.45;;;8.95;;
75626;SDS011;64211;49.404;11.034;2022-12-18T08:53:39;23.88;;;7.03;;
75626;SDS011;64211;49.404;11.034;2022-12-18T08:56:07;25.35;;;8.68;;
75626;SDS011;64211;49.404;11.034;2022-12-18T08:58:33;29.02;;;8.93;;
75626;SDS011;64211;49.404;11.034;2022-12-18T09:01:00;23.17;;;7.50;;
75626;SDS011;64211;49.404;11.034;2022-12-18T09:03:28;23.52;;;7.07;;
75626;SDS011;64211;49.404;11.034;2022-12-18T09:05:54;19.95;;;6.57;;
75626;SDS011;64211;49.404;11.034;2022-12-18T09:08:21;17.80;;;6.45;;
75626;SDS011;64211;49.404;11.034;2022-12-18T09:10:48;17.88;;;6.22;;
75626;SDS011;64211;49.404;11.034;2022-12-18T09:13:16;18.90;;;5.82;;
75626;SDS011;64211;49.404;11.034;2022-12-18T09:15:44;20.85;;;7.78;;
75626;SDS011;64211;49.404;11.034;2022-12-18T09:18:12;21.33;;;6.72;;
75626;SDS011;64211;49.404;11.034;2022-12-18T09:20:40;15.85;;;6.13;;
75626;SDS011;64211;49.404;11.034;2022-12-18T09:23:07;22.58;;;8.35;;
75626;SDS011;64211;49.404;11.034;2022-12-18T09:25:35;20.58;;;6.55;;
75626;SDS011;64211;49.404;11.034;2022-12-18T09:28:04;17.55;;;6.88;;
75626;SDS011;64211;49.404;11.034;2022-12-18T09:30:43;24.48;;;9.18;;
75626;SDS011;64211;49.404;11.034;2022-12-18T09:33:12;25.58;;;8.00;;
75626;SDS011;64211;49.404;11.034;2022-12-18T09:35:39;22.40;;;9.38;;
75626;SDS011;64211;49.404;11.034;2022-12-18T09:38:08;22.05;;;7.70;;
75626;SDS011;64211;49.404;11.034;2022-12-18T09:40:41;26.25;;;9.30;;
75626;SDS011;64211;49.404;11.034;2022-12-18T09:43:23;25.60;;;10.13;;
75626;SDS011;64211;49.404;11.034;2022-12-18T09:46:00;22.27;;;9.50;;
75626;SDS011;64211;49.404;11.034;2022-12-18T09:48:31;24.38;;;9.40;;
75626;SDS011;64211;49.404;11.034;2022-12-18T09:51:02;27.45;;;10.68;;
75626;SDS011;64211;49.404;11.034;2022-12-18T09:53:35;20.52;;;7.28;;
75626;SDS011;64211;49.404;11.034;2022-12-18T09:56:06;21.13;;;7.43;;
75626;SDS011;64211;49.404;11.034;2022-12-18T09:58:44;18.40;;;8.55;;
75626;SDS011;64211;49.404;11.034;2022-12-18T10:01:20;22.05;;;9.43;;
75626;SDS011;64211;49.404;11.034;2022-12-18T10:03:49;19.92;;;7.03;;
75626;SDS011;64211;49.404;11.034;2022-12-18T10:06:35;16.02;;;5.72;;
75626;SDS011;64211;49.404;11.034;2022-12-18T10:09:11;17.60;;;6.35;;
75626;SDS011;64211;49.404;11.034;2022-12-18T10:14:22;13.25;;;5.38;;
75626;SDS011;64211;49.404;11.034;2022-12-18T10:17:19;20.67;;;6.75;;
75626;SDS011;64211;49.404;11.034;2022-12-18T10:19:50;15.93;;;5.78;;
75626;SDS011;64211;49.404;11.034;2022-12-18T10:25:26;17.52;;;6.43;;
75626;SDS011;64211;49.404;11.034;2022-12-18T10:28:12;24.55;;;7.82;;
75626;SDS011;64211;49.404;11.034;2022-12-18T10:30:40;18.88;;;6.00;;
75626;SDS011;64211;49.404;11.034;2022-12-18T10:33:12;21.38;;;6.60;;
75626;SDS011;64211;49.404;11.034;2022-12-18T10:35:42;18.02;;;5.85;;
75626;SDS011;64211;49.404;11.034;2022-12-18T10:50:56;17.45;;;6.25;;
75626;SDS011;64211;49.404;11.034;2022-12-18T10:53:39;24.08;;;7.65;;
75626;SDS011;64211;49.404;11.034;2022-12-18T10:56:07;12.18;;;5.07;;
75626;SDS011;64211;49.404;11.034;2022-12-18T10:58:35;19.23;;;6.65;;
75626;SDS011;64211;49.404;11.034;2022-12-18T11:01:05;19.40;;;6.63;;
75626;SDS011;64211;49.404;11.034;2022-12-18T11:03:43;20.58;;;6.53;;
75626;SDS011;64211;49.404;11.034;2022-12-18T11:06:18;25.20;;;7.30;;
75626;SDS011;64211;49.404;11.034;2022-12-18T11:09:00;18.83;;;6.93;;
75626;SDS011;64211;49.404;11.034;2022-12-18T11:11:37;15.00;;;5.70;;
75626;SDS011;64211;49.404;11.034;2022-12-18T11:14:04;18.23;;;6.32;;
75626;SDS011;64211;49.404;11.034;2022-12-18T11:16:35;18.80;;;7.03;;
75626;SDS011;64211;49.404;11.034;2022-12-18T11:19:35;18.38;;;6.18;;
75626;SDS011;64211;49.404;11.034;2022-12-18T11:22:17;23.63;;;6.88;;
75626;SDS011;64211;49.404;11.034;2022-12-18T11:24:56;17.90;;;6.10;;
75626;SDS011;64211;49.404;11.034;2022-12-18T11:27:50;19.02;;;6.50;;
75626;SDS011;64211;49.404;11.034;2022-12-18T11:32:58;22.00;;;7.18;;
75626;SDS011;64211;49.404;11.034;2022-12-18T11:35:57;21.60;;;7.43;;
75626;SDS011;64211;49.404;11.034;2022-12-18T11:38:35;14.63;;;6.60;;
75626;SDS011;64211;49.404;11.034;2022-12-18T11:41:23;16.75;;;6.47;;
75626;SDS011;64211;49.404;11.034;2022-12-18T11:44:18;22.05;;;7.28;;
75626;SDS011;64211;49.404;11.034;2022-12-18T11:46:51;16.58;;;6.43;;
75626;SDS011;64211;49.404;11.034;2022-12-18T11:49:28;18.52;;;5.97;;
75626;SDS011;64211;49.404;11.034;2022-12-18T11:52:07;22.33;;;7.90;;
75626;SDS011;64211;49.404;11.034;2022-12-18T11:54:35;21.25;;;6.35;;
75626;SDS011;64211;49.404;11.034;2022-12-18T11:57:18;18.58;;;6.95;;
75626;SDS011;64211;49.404;11.034;2022-12-18T12:00:07;21.70;;;7.70;;
75626;SDS011;64211;49.404;11.034;2022-12-18T12:05:51;17.77;;;6.85;;
75626;SDS011;64211;49.404;11.034;2022-12-18T12:11:35;28.88;;;10.25;;
75626;SDS011;64211;49.404;11.034;2022-12-18T12:14:22;23.65;;;8.65;;
75626;SDS011;64211;49.404;11.034;2022-12-18T12:17:01;22.35;;;8.20;;
75626;SDS011;64211;49.404;11.034;2022-12-18T12:25:37;24.63;;;6.97;;
75626;SDS011;64211;49.404;11.034;2022-12-18T12:28:44;18.02;;;7.47;;
75626;SDS011;64211;49.404;11.034;2022-12-18T12:34:26;25.05;;;7.38;;
75626;SDS011;64211;49.404;11.034;2022-12-18T12:40:17;18.98;;;7.60;;
75626;SDS011;64211;49.404;11.034;2022-12-18T12:43:10;21.08;;;8.10;;
75626;SDS011;64211;49.404;11.034;2022-12-18T12:45:47;19.85;;;7.03;;
75626;SDS011;64211;49.404;11.034;2022-12-18T12:51:00;20.98;;;6.97;;
75626;SDS011;64211;49.404;11.034;2022-12-18T12:53:31;13.20;;;5.43;;
75626;SDS011;64211;49.404;11.034;2022-12-18T12:56:03;25.50;;;10.05;;
75626;SDS011;64211;49.404;11.034;2022-12-18T12:58:46;21.63;;;8.82;;
75626;SDS011;64211;49.404;11.034;2022-12-18T13:01:27;21.15;;;7.28;;
75626;SDS011;64211;49.404;11.034;2022-12-18T13:04:12;17.70;;;7.15;;
75626;SDS011;64211;49.404;11.034;2022-12-18T13:06:50;20.05;;;8.18;;
75626;SDS011;64211;49.404;11.034;2022-12-18T13:09:29;24.77;;;8.32;;
75626;SDS011;64211;49.404;11.034;2022-12-18T13:12:02;21.15;;;8.27;;
75626;SDS011;64211;49.404;11.034;2022-12-18T13:14:48;18.35;;;6.72;;
75626;SDS011;64211;49.404;11.034;2022-12-18T13:19:49;22.63;;;7.82;;
75626;SDS011;64211;49.404;11.034;2022-12-18T13:22:28;17.85;;;7.55;;
75626;SDS011;64211;49.404;11.034;2022-12-18T13:24:59;20.38;;;6.85;;
75626;SDS011;64211;49.404;11.034;2022-12-18T13:35:40;18.98;;;7.55;;
75626;SDS011;64211;49.404;11.034;2022-12-18T13:40:55;22.00;;;7.15;;
75626;SDS011;64211;49.404;11.034;2022-12-18T13:48:52;19.05;;;7.65;;
75626;SDS011;64211;49.404;11.034;2022-12-18T13:51:22;21.67;;;7.40;;
75626;SDS011;64211;49.404;11.034;2022-12-18T13:53:51;20.85;;;8.30;;
75626;SDS011;64211;49.404;11.034;2022-12-18T13:56:25;19.92;;;6.85;;
75626;SDS011;64211;49.404;11.034;2022-12-18T13:59:14;24.10;;;7.30;;
75626;SDS011;64211;49.404;11.034;2022-12-18T14:01:44;23.17;;;8.65;;
75626;SDS011;64211;49.404;11.034;2022-12-18T14:04:18;22.08;;;7.25;;
75626;SDS011;64211;49.404;11.034;2022-12-18T14:06:48;20.08;;;7.57;;
75626;SDS011;64211;49.404;11.034;2022-12-18T14:09:20;18.77;;;6.70;;
75626;SDS011;64211;49.404;11.034;2022-12-18T14:11:51;18.45;;;7.18;;
75626;SDS011;64211;49.404;11.034;2022-12-18T14:14:40;23.02;;;7.88;;
75626;SDS011;64211;49.404;11.034;2022-12-18T14:17:10;20.98;;;7.30;;
75626;SDS011;64211;49.404;11.034;2022-12-18T14:19:40;25.23;;;9.82;;
75626;SDS011;64211;49.404;11.034;2022-12-18T14:22:13;27.15;;;9.65;;
75626;SDS011;64211;49.404;11.034;2022-12-18T14:29:45;23.73;;;8.77;;
75626;SDS011;64211;49.404;11.034;2022-12-18T14:34:53;23.30;;;9.73;;
75626;SDS011;64211;49.404;11.034;2022-12-18T14:37:21;20.58;;;8.23;;
75626;SDS011;64211;49.404;11.034;2022-12-18T14:39:55;20.80;;;7.35;;
75626;SDS011;64211;49.404;11.034;2022-12-18T14:42:24;21.10;;;6.93;;
75626;SDS011;64211;49.404;11.034;2022-12-18T14:48:52;16.23;;;6.55;;
75626;SDS011;64211;49.404;11.034;2022-12-18T14:51:00;20.10;;;7.22;;
75626;SDS011;64211;49.404;11.034;2022-12-18T14:53:39;17.25;;;7.93;;
75626;SDS011;64211;49.404;11.034;2022-12-18T15:03:53;19.35;;;7.80;;
75626;SDS011;64211;49.404;11.034;2022-12-18T15:06:25;18.13;;;7.00;;
75626;SDS011;64211;49.404;11.034;2022-12-18T15:08:53;19.60;;;6.57;;
75626;SDS011;64211;49.404;11.034;2022-12-18T15:11:55;21.60;;;7.43;;
75626;SDS011;64211;49.404;11.034;2022-12-18T15:17:19;14.00;;;6.30;;
75626;SDS011;64211;49.404;11.034;2022-12-18T15:19:50;18.13;;;6.28;;
75626;SDS011;64211;49.404;11.034;2022-12-18T15:22:29;19.73;;;6.38;;
75626;SDS011;64211;49.404;11.034;2022-12-18T15:24:59;21.17;;;7.15;;
75626;SDS011;64211;49.404;11.034;2022-12-18T15:32:27;17.70;;;5.72;;
75626;SDS011;64211;49.404;11.034;2022-12-18T15:35:12;18.77;;;6.63;;
75626;SDS011;64211;49.404;11.034;2022-12-18T15:37:41;19.60;;;6.65;;
75626;SDS011;64211;49.404;11.034;2022-12-18T15:40:11;24.92;;;9.32;;
75626;SDS011;64211;49.404;11.034;2022-12-18T15:42:42;22.88;;;7.35;;
75626;SDS011;64211;49.404;11.034;2022-12-18T15:45:28;26.05;;;8.73;;
75626;SDS011;64211;49.404;11.034;2022-12-18T15:47:54;22.60;;;8.18;;
75626;SDS011;64211;49.404;11.034;2022-12-18T15:50:21;20.65;;;8.50;;
75626;SDS011;64211;49.404;11.034;2022-12-18T15:52:48;17.92;;;6.78;;
75626;SDS011;64211;49.404;11.034;2022-12-18T15:55:18;24.13;;;9.05;;
75626;SDS011;64211;49.404;11.034;2022-12-18T15:58:06;21.20;;;8.45;;
75626;SDS011;64211;49.404;11.034;2022-12-18T16:00:33;21.70;;;7.05;;
75626;SDS011;64211;49.404;11.034;2022-12-18T16:03:02;24.08;;;8.25;;
75626;SDS011;64211;49.404;11.034;2022-12-18T16:07:57;20.10;;;7.63;;
75626;SDS011;64211;49.404;11.034;2022-12-18T16:10:24;16.73;;;7.68;;
75626;SDS011;64211;49.404;11.034;2022-12-18T16:12:52;20.27;;;6.70;;
75626;SDS011;64211;49.404;11.034;2022-12-18T16:15:18;19.17;;;7.05;;
75626;SDS011;64211;49.404;11.034;2022-12-18T16:17:49;20.67;;;8.38;;
75626;SDS011;64211;49.404;11.034;2022-12-18T16:20:16;19.85;;;8.20;;
75626;SDS011;64211;49.404;11.034;2022-12-18T16:22:47;23.85;;;8.70;;
75626;SDS011;64211;49.404;11.034;2022-12-18T16:25:16;26.08;;;9.48;;
75626;SDS011;64211;49.404;11.034;2022-12-18T16:27:47;19.92;;;8.43;;
75626;SDS011;64211;49.404;11.034;2022-12-18T16:30:16;20.00;;;8.25;;
75626;SDS011;64211;49.404;11.034;2022-12-18T16:32:44;28.65;;;10.77;;
75626;SDS011;64211;49.404;11.034;2022-12-18T16:35:11;22.70;;;7.85;;
75626;SDS011;64211;49.404;11.034;2022-12-18T16:37:40;25.30;;;8.63;;
75626;SDS011;64211;49.404;11.034;2022-12-18T16:40:07;22.70;;;8.23;;
75626;SDS011;64211;49.404;11.034;2022-12-18T16:42:36;27.63;;;9.45;;